Terminal Aerodrome Forecast
Issued by NWS

Home | Current Version | Previous Version | Text Only | Print | Product List | Glossary On
Versions: 1 2 3 4 5 6 7 8 9 10 11 12 13 14 15 16 17 18 19
908
FTUS42 KGSP 262335
TAFGMU
TAF
KGMU 262335Z 2700/2724 15006KT P6SM FEW040 SCT100 SCT250
     FM270300 16004KT P6SM VCSH BKN060
     FM270800 18004KT 6SM BR VCSH BKN030
     FM270900 18004KT 5SM BR BKN030 PROB30 2709/2711 2SM -SHRA BR
      OVC015
     FM271100 19003KT 2SM BR BKN008
     FM271400 19003KT P6SM BKN008
     FM271700 22006KT P6SM VCSH BKN050=

USA.gov is the U.S. government's official web portal to all federal, state and local government web resources and services.